This is the latest recevied weather packets stored in our database for station/object SV9TNF-2. If no packets are shown the sender has not sent any weather packets the latest 10 day(s).
| Time | Temp. | Humidity | Pressure | Rain* | Wind** | Luminosity | Snow |
|---|---|---|---|---|---|---|---|
| 1777451960 | 24.44° C | 41% | 1023.4 hPa | 0 mm | 1.34 m/s, 244° | - | - |
| 1777451660 | 23.33° C | 44% | 1023.4 hPa | 0 mm | 4.92 m/s, 354° | - | - |
| 1777451361 | 24.44° C | 38% | 1023.4 hPa | 0 mm | 4.92 m/s, 249° | - | - |
| 1777451060 | 24.44° C | 41% | 1023.4 hPa | 0 mm | 1.34 m/s, 210° | - | - |
| 1777450760 | 24.44° C | 41% | 1023.4 hPa | 0 mm | 1.34 m/s, 224° | - | - |
| 1777450460 | 23.89° C | 39% | 1023.4 hPa | 0 mm | 4.02 m/s, 63° | - | - |
| 1777450160 | 25° C | 38% | 1023.4 hPa | 0 mm | 0.89 m/s, 232° | - | - |
| 1777449860 | 25° C | 37% | 1023.4 hPa | 0 mm | 0.45 m/s, 0° | - | - |
| 1777449560 | 25° C | 33% | 1023.4 hPa | 0 mm | 4.47 m/s, 259° | - | - |
| 1777449260 | 23.33° C | 40% | 1023.4 hPa | 0 mm | 2.68 m/s, 29° | - | - |
| 1777448960 | 23.33° C | 37% | 1023.4 hPa | 0 mm | 2.68 m/s, 349° | - | - |
| 1777448659 | 22.78° C | 42% | 1023.4 hPa | 0 mm | 1.79 m/s, 320° | - | - |
| 1777448359 | 22.22° C | 48% | 1023.4 hPa | 0 mm | 1.34 m/s, 26° | - | - |
| 1777448060 | 23.33° C | 47% | 1023 hPa | 0 mm | 2.24 m/s, 330° | - | - |
| 1777447759 | 22.78° C | 38% | 1023 hPa | 0 mm | 4.47 m/s, 22° | - | - |
| 1777447459 | 24.44° C | 35% | 1023 hPa | 0 mm | 3.58 m/s, 231° | - | - |
| 1777447159 | 22.78° C | 39% | 1023 hPa | 0 mm | 2.24 m/s, 302° | - | - |
| 1777446859 | 23.89° C | 43% | 1023 hPa | 0 mm | 1.34 m/s, 232° | - | - |
| 1777446559 | 22.78° C | 49% | 1023.4 hPa | 0 mm | 2.68 m/s, 282° | - | - |
| 1777446259 | 23.33° C | 46% | 1023.4 hPa | 0 mm | 3.58 m/s, 320° | - | - |
| 1777445958 | 23.33° C | 44% | 1023.4 hPa | 0 mm | 2.68 m/s, 259° | - | - |
| 1777445659 | 23.33° C | 41% | 1023.4 hPa | 0 mm | 2.24 m/s, 246° | - | - |
| 1777445358 | 23.33° C | 42% | 1023.4 hPa | 0 mm | 3.58 m/s, 262° | - | - |
| 1777445059 | 22.78° C | 49% | 1023.4 hPa | 0 mm | 2.68 m/s, 251° | - | - |
| 1777444758 | 22.78° C | 49% | 1023.4 hPa | 0 mm | 2.68 m/s, 266° | - | - |
* Rain latest hour (hover to see other rain measurements)
** Current wind speed in m/s (hover to see current wind gust speed)